Wyndmere, North Dakota
Current Conditions -  °F | °C
As of 10:15 PM on Monday 22 Dec 2014 (Local Time) from KGWR Reporting Station
Overcast Overcast  
Wind Chill: -3°   Ceiling: 200
Heat Index:   Visibility: 1.5mi
Dew Point:   Wind: 10mph
Humidity: 100%   Direction: 50°NE
Pressure: 29.64"   Gusts: NA
Location:  46.27°N, 97.13°W
Report Text: KGWR 230415Z AUTO 05009KT 1 1/2SM OVC002 01/01 A2964 RMK A01 P000
Loading
Personal Weather Stations






























Interactive Weather Map New forecast layout! Learn more

10-Day Weather Forecast

Advertisements
Track Severe Weather on mobile